createdAt,value
2017-05-06T00:01:24.881Z,73.00
2017-05-06T00:03:53.189Z,72.90
2017-05-06T00:06:21.493Z,72.60
2017-05-06T00:08:49.799Z,72.70
2017-05-06T00:11:18.104Z,73.00
2017-05-06T00:13:46.410Z,73.10
2017-05-06T00:16:15.014Z,73.50
2017-05-06T00:18:44.069Z,72.90
2017-05-06T00:21:12.374Z,73.50
2017-05-06T00:23:42.247Z,73.80
2017-05-06T00:26:10.553Z,73.80
2017-05-06T00:28:38.863Z,74.00
2017-05-06T00:31:07.441Z,74.20
2017-05-06T00:33:35.746Z,74.20
2017-05-06T00:36:04.050Z,74.20
2017-05-06T00:38:32.363Z,74.30
2017-05-06T00:41:01.859Z,75.00
2017-05-06T00:43:30.168Z,74.40
2017-05-06T00:46:01.610Z,74.40
2017-05-06T00:48:29.915Z,74.40
2017-05-06T00:50:58.218Z,74.40
2017-05-06T00:53:26.566Z,74.50
2017-05-06T00:55:55.614Z,75.20
2017-05-06T00:58:23.957Z,74.60
2017-05-06T01:00:52.597Z,74.60
2017-05-06T01:03:20.993Z,75.30
2017-05-06T01:05:49.302Z,74.70
2017-05-06T01:08:17.611Z,74.80
2017-05-06T01:10:46.011Z,74.80
2017-05-06T01:13:14.318Z,74.80
2017-05-06T01:15:42.646Z,74.70
2017-05-06T01:18:10.959Z,74.70
2017-05-06T01:20:39.265Z,74.70
2017-05-06T01:23:07.575Z,74.70
2017-05-06T01:25:36.621Z,74.60
2017-05-06T01:28:04.931Z,74.60
2017-05-06T01:30:33.242Z,74.60
2017-05-06T01:33:01.778Z,74.60
2017-05-06T01:35:30.826Z,74.80
2017-05-06T01:37:59.134Z,74.80
2017-05-06T01:40:27.441Z,74.70
2017-05-06T01:42:55.855Z,74.70
2017-05-06T01:45:24.173Z,74.70
2017-05-06T01:47:52.862Z,74.70
2017-05-06T01:50:21.176Z,74.70
2017-05-06T01:52:49.490Z,74.70
2017-05-06T01:55:18.544Z,74.60
2017-05-06T01:57:46.858Z,74.70
2017-05-06T02:00:15.169Z,74.80
2017-05-06T02:02:43.726Z,74.80
2017-05-06T02:05:12.154Z,74.80
2017-05-06T02:07:40.502Z,74.80
2017-05-06T02:10:09.554Z,74.80
2017-05-06T02:12:37.865Z,74.70
2017-05-06T02:15:06.175Z,74.60
2017-05-06T02:17:35.599Z,74.60
2017-05-06T02:20:03.906Z,74.70
2017-05-06T02:22:32.210Z,74.70
2017-05-06T02:25:00.515Z,74.60
2017-05-06T02:27:28.826Z,74.60
2017-05-06T02:29:57.882Z,74.60
2017-05-06T02:32:26.188Z,74.60
2017-05-06T02:34:54.538Z,74.50
2017-05-06T02:37:22.846Z,74.60
2017-05-06T02:39:51.934Z,74.60
2017-05-06T02:42:20.243Z,74.70
2017-05-06T02:44:48.559Z,74.60
2017-05-06T02:47:17.602Z,74.60
2017-05-06T02:49:45.906Z,74.50
2017-05-06T02:52:14.541Z,74.50
2017-05-06T02:54:42.946Z,74.50
2017-05-06T02:57:11.268Z,74.50
2017-05-06T02:59:40.319Z,74.50
2017-05-06T03:02:08.934Z,74.60
2017-05-06T03:04:37.366Z,74.50
2017-05-06T03:07:05.669Z,74.50
2017-05-06T03:09:33.977Z,74.60
2017-05-06T03:12:02.286Z,74.60
2017-05-06T03:14:31.570Z,74.60
2017-05-06T03:16:59.885Z,74.60
2017-05-06T03:19:28.196Z,74.60
2017-05-06T03:21:56.554Z,74.60
2017-05-06T03:24:24.866Z,74.60
2017-05-06T03:26:53.221Z,74.60
2017-05-06T03:29:21.534Z,74.60
2017-05-06T03:31:49.885Z,74.70
2017-05-06T03:34:18.198Z,74.70
2017-05-06T03:36:47.583Z,74.80
2017-05-06T03:39:15.897Z,74.50
2017-05-06T03:41:44.207Z,74.60
2017-05-06T03:44:13.263Z,74.50
2017-05-06T03:46:41.574Z,74.60
2017-05-06T03:49:09.882Z,74.60
2017-05-06T03:51:38.190Z,74.80
2017-05-06T03:54:06.619Z,74.80
2017-05-06T03:56:35.679Z,74.70
2017-05-06T03:59:04.039Z,74.70
2017-05-06T04:01:33.087Z,74.70
2017-05-06T04:04:02.197Z,74.80
2017-05-06T04:06:30.562Z,74.80
2017-05-06T04:08:58.872Z,75.00
2017-05-06T04:11:27.935Z,75.50
2017-05-06T04:13:56.271Z,77.00
2017-05-06T04:16:24.950Z,78.20
2017-05-06T04:18:53.258Z,79.10
2017-05-06T04:21:21.574Z,79.50
2017-05-06T04:23:50.156Z,78.50
2017-05-06T04:26:18.461Z,78.70
2017-05-06T04:28:46.771Z,77.60
2017-05-06T04:31:15.086Z,76.50
2017-05-06T04:33:44.146Z,77.10
2017-05-06T04:36:12.453Z,77.10
2017-05-06T04:38:40.762Z,77.10
2017-05-06T04:41:09.227Z,76.70
2017-05-06T04:43:37.546Z,76.20
2017-05-06T04:46:05.857Z,75.30
2017-05-06T04:48:34.171Z,74.10
2017-05-06T04:51:02.485Z,72.80
2017-05-06T04:53:31.538Z,70.50
2017-05-06T04:55:59.852Z,69.50
2017-05-06T04:58:28.314Z,68.60
2017-05-06T05:00:57.359Z,67.00
2017-05-06T05:03:25.670Z,64.90
2017-05-06T05:05:55.911Z,62.80
2017-05-06T05:08:24.222Z,61.50
2017-05-06T05:10:52.703Z,60.20
2017-05-06T05:13:21.006Z,59.00
2017-05-06T05:15:49.313Z,57.50
2017-05-06T05:18:17.670Z,55.60
2017-05-06T05:20:45.982Z,54.70
2017-05-06T05:23:14.661Z,52.50
2017-05-06T05:25:43.715Z,51.20
2017-05-06T05:28:12.021Z,50.40
2017-05-06T05:30:40.333Z,49.00
2017-05-06T05:33:08.693Z,46.60
2017-05-06T05:35:37.001Z,46.80
2017-05-06T05:38:05.843Z,45.40
2017-05-06T05:40:34.149Z,43.80
2017-05-06T05:43:02.469Z,42.30
2017-05-06T05:45:32.301Z,41.10
2017-05-06T05:48:01.361Z,39.80
2017-05-06T05:50:29.770Z,38.10
2017-05-06T05:52:58.123Z,37.30
2017-05-06T05:55:27.175Z,37.00
2017-05-06T05:57:55.737Z,36.60
2017-05-06T06:00:24.799Z,36.30
2017-05-06T06:02:53.106Z,35.70
2017-05-06T06:05:21.722Z,34.90
2017-05-06T06:07:50.287Z,34.60
2017-05-06T06:10:18.750Z,35.50
2017-05-06T06:12:47.058Z,36.00
2017-05-06T06:15:16.106Z,36.40
2017-05-06T06:17:44.786Z,36.90
2017-05-06T06:20:13.842Z,37.40
2017-05-06T06:22:42.146Z,38.20
2017-05-06T06:25:10.454Z,39.10
2017-05-06T06:27:38.758Z,39.10
2017-05-06T06:30:07.066Z,39.30
2017-05-06T06:32:35.370Z,40.10
2017-05-06T06:35:04.162Z,40.80
2017-05-06T06:37:32.469Z,40.90
2017-05-06T06:40:00.777Z,41.30
2017-05-06T06:42:29.106Z,41.90
2017-05-06T06:44:57.462Z,41.50
2017-05-06T06:47:25.775Z,40.80
2017-05-06T06:49:54.078Z,41.00
2017-05-06T06:52:22.392Z,41.20
2017-05-06T06:54:51.467Z,41.80
2017-05-06T06:57:19.782Z,42.20
2017-05-06T06:59:48.094Z,42.00
2017-05-06T07:02:17.294Z,42.30
2017-05-06T07:04:45.739Z,43.80
2017-05-06T07:07:14.056Z,43.40
2017-05-06T07:09:42.370Z,43.40
2017-05-06T07:12:10.678Z,44.30
2017-05-06T07:14:38.990Z,44.60
2017-05-06T07:17:07.306Z,45.20
2017-05-06T07:19:36.358Z,45.70
2017-05-06T07:22:04.674Z,46.20
2017-05-06T07:24:33.514Z,46.20
2017-05-06T07:27:01.843Z,46.80
2017-05-06T07:29:30.156Z,47.10
2017-05-06T07:31:58.473Z,47.40
2017-05-06T07:34:26.798Z,47.50
2017-05-06T07:36:55.133Z,47.70
2017-05-06T07:39:24.190Z,47.90
2017-05-06T07:41:52.710Z,48.50
2017-05-06T07:44:21.032Z,48.30
2017-05-06T07:46:49.349Z,47.90
2017-05-06T07:49:18.405Z,48.40
2017-05-06T07:51:46.762Z,48.50
2017-05-06T07:54:15.817Z,48.70
2017-05-06T07:56:44.138Z,49.20
2017-05-06T07:59:14.184Z,49.40
2017-05-06T08:01:42.534Z,50.00
2017-05-06T08:04:11.252Z,49.90
2017-05-06T08:06:39.570Z,49.40
2017-05-06T08:09:07.890Z,49.50
2017-05-06T08:11:36.681Z,49.60
2017-05-06T08:14:04.998Z,49.60
2017-05-06T08:16:33.317Z,49.90
2017-05-06T08:19:02.378Z,49.90
2017-05-06T08:21:30.690Z,50.40
2017-05-06T08:23:59.010Z,50.60
2017-05-06T08:26:27.325Z,50.50
2017-05-06T08:28:56.384Z,50.90
2017-05-06T08:31:24.708Z,51.10
2017-05-06T08:33:53.036Z,51.20
2017-05-06T08:36:22.095Z,51.20
2017-05-06T08:38:50.417Z,51.20
2017-05-06T08:41:18.734Z,51.40
2017-05-06T08:43:47.095Z,51.50
2017-05-06T08:46:15.410Z,50.90
2017-05-06T08:48:43.978Z,50.50
2017-05-06T08:51:12.293Z,50.60
2017-05-06T08:53:40.614Z,50.30
2017-05-06T08:56:08.929Z,49.90
2017-05-06T08:58:37.242Z,49.40
2017-05-06T09:01:06.298Z,49.10
2017-05-06T09:03:34.617Z,49.20
2017-05-06T09:06:02.934Z,49.40
2017-05-06T09:08:31.254Z,49.50
2017-05-06T09:11:00.309Z,49.70
2017-05-06T09:13:28.620Z,49.90
2017-05-06T09:15:56.930Z,49.90
2017-05-06T09:18:25.234Z,49.70
2017-05-06T09:20:53.542Z,49.90
2017-05-06T09:23:21.850Z,49.90
2017-05-06T09:25:50.161Z,49.80
2017-05-06T09:28:19.213Z,49.80
2017-05-06T09:30:47.594Z,49.60
2017-05-06T09:33:15.906Z,50.00
2017-05-06T09:35:44.214Z,50.10
2017-05-06T09:38:12.666Z,49.70
2017-05-06T09:40:41.729Z,49.60
2017-05-06T09:43:10.046Z,49.00
2017-05-06T09:45:38.366Z,48.50
2017-05-06T09:48:07.021Z,48.40
2017-05-06T09:50:35.764Z,49.00
2017-05-06T09:53:04.077Z,49.00
2017-05-06T09:55:32.395Z,48.70
2017-05-06T09:58:01.442Z,47.80
2017-05-06T10:00:29.748Z,47.60
2017-05-06T10:02:58.114Z,47.70
2017-05-06T10:05:31.034Z,47.80
2017-05-06T10:07:59.382Z,47.50
2017-05-06T10:10:27.690Z,47.10
2017-05-06T10:12:56.002Z,47.20
2017-05-06T10:15:25.061Z,47.10
2017-05-06T10:17:53.460Z,47.50
2017-05-06T10:20:21.766Z,47.40
2017-05-06T10:22:50.074Z,47.10
2017-05-06T10:25:18.391Z,47.50
2017-05-06T10:27:46.707Z,47.50
2017-05-06T10:30:15.757Z,47.10
2017-05-06T10:32:44.067Z,46.50
2017-05-06T10:35:12.698Z,46.80
2017-05-06T10:37:41.007Z,46.70
2017-05-06T10:40:09.322Z,46.80
2017-05-06T10:42:38.379Z,47.10
2017-05-06T10:45:06.687Z,47.00
2017-05-06T10:47:35.410Z,46.90
2017-05-06T10:50:03.775Z,46.90
2017-05-06T10:52:32.089Z,46.80
2017-05-06T10:55:00.753Z,47.20
2017-05-06T10:57:29.807Z,46.60
2017-05-06T10:59:58.118Z,46.80
2017-05-06T11:02:26.441Z,47.20
2017-05-06T11:04:54.750Z,47.50
2017-05-06T11:07:23.534Z,47.20
2017-05-06T11:09:51.847Z,47.70
2017-05-06T11:12:20.165Z,47.70
2017-05-06T11:14:49.220Z,47.00
2017-05-06T11:17:20.159Z,46.80
2017-05-06T11:19:53.005Z,46.20
2017-05-06T11:22:25.822Z,45.80
2017-05-06T11:24:54.186Z,45.30
2017-05-06T11:27:22.501Z,45.30
2017-05-06T11:29:51.015Z,45.70
2017-05-06T11:32:19.327Z,45.50
2017-05-06T11:34:48.382Z,44.90
2017-05-06T11:37:16.701Z,44.90
2017-05-06T11:39:50.330Z,44.60
2017-05-06T11:42:18.639Z,44.70
2017-05-06T11:44:46.966Z,44.50
2017-05-06T11:47:16.026Z,44.50
2017-05-06T11:49:46.836Z,43.80
2017-05-06T11:52:15.159Z,43.70
2017-05-06T11:54:43.520Z,43.70
2017-05-06T11:57:12.589Z,43.70
2017-05-06T11:59:40.954Z,44.00
2017-05-06T12:02:09.269Z,44.00
2017-05-06T12:04:37.582Z,44.00
2017-05-06T12:07:05.889Z,44.20
2017-05-06T12:09:34.214Z,43.60
2017-05-06T12:12:02.525Z,43.50
2017-05-06T12:14:31.581Z,43.20
2017-05-06T12:16:59.894Z,43.10
2017-05-06T12:19:34.540Z,43.50
2017-05-06T12:22:07.417Z,44.00
2017-05-06T12:24:40.546Z,44.10
2017-05-06T12:27:13.423Z,44.30
2017-05-06T12:29:46.337Z,44.30
2017-05-06T12:32:14.654Z,44.20
2017-05-06T12:34:43.011Z,44.40
2017-05-06T12:37:11.327Z,44.70
2017-05-06T12:39:39.846Z,44.30
2017-05-06T12:42:08.168Z,44.20
2017-05-06T12:44:36.584Z,43.90
2017-05-06T12:47:05.689Z,44.00
2017-05-06T12:49:34.009Z,43.90
2017-05-06T12:52:05.475Z,43.80
2017-05-06T12:54:34.529Z,43.70
2017-05-06T12:57:04.305Z,43.00
2017-05-06T12:59:32.629Z,42.50
2017-05-06T13:02:00.946Z,43.20
2017-05-06T13:04:29.278Z,43.10
2017-05-06T13:06:57.933Z,43.10
2017-05-06T13:09:27.021Z,42.90
2017-05-06T13:11:55.338Z,42.80
2017-05-06T13:14:24.397Z,42.40
2017-05-06T13:16:52.705Z,41.90
2017-05-06T13:19:21.082Z,42.70
2017-05-06T13:21:49.393Z,42.90
2017-05-06T13:24:17.709Z,42.60
2017-05-06T13:26:46.018Z,42.50
2017-05-06T13:29:14.321Z,42.10
2017-05-06T13:31:42.629Z,42.10
2017-05-06T13:34:10.942Z,42.50
2017-05-06T13:36:45.170Z,42.30
2017-05-06T13:39:14.217Z,42.40
2017-05-06T13:41:42.522Z,42.40
2017-05-06T13:44:10.829Z,42.40
2017-05-06T13:46:39.445Z,42.60
2017-05-06T13:49:07.758Z,42.20
2017-05-06T13:51:36.066Z,41.90
2017-05-06T13:54:04.422Z,42.00
2017-05-06T13:56:32.733Z,42.00
2017-05-06T13:59:01.201Z,41.80
2017-05-06T14:01:29.515Z,41.70
2017-05-06T14:03:57.844Z,41.70
2017-05-06T14:06:26.398Z,41.60
2017-05-06T14:08:54.705Z,41.60
2017-05-06T14:11:23.016Z,41.00
2017-05-06T14:13:51.593Z,40.30
2017-05-06T14:16:20.151Z,40.70
2017-05-06T14:18:48.467Z,40.30
2017-05-06T14:21:17.445Z,40.40
2017-05-06T14:23:45.798Z,39.90
2017-05-06T14:26:14.849Z,40.20
2017-05-06T14:28:43.157Z,40.60
2017-05-06T14:31:11.470Z,40.60
2017-05-06T14:33:39.885Z,40.40
2017-05-06T14:36:08.189Z,40.70
2017-05-06T14:38:36.909Z,40.90
2017-05-06T14:41:05.961Z,40.60
2017-05-06T14:43:34.270Z,40.80
2017-05-06T14:46:02.630Z,40.50
2017-05-06T14:48:31.685Z,40.80
2017-05-06T14:51:00.122Z,40.90
2017-05-06T14:53:28.430Z,40.90
2017-05-06T14:55:58.133Z,40.90
2017-05-06T14:58:26.442Z,41.20
2017-05-06T15:00:55.105Z,40.50
2017-05-06T15:03:23.419Z,40.60
2017-05-06T15:05:51.734Z,40.80
2017-05-06T15:08:20.062Z,40.80
2017-05-06T15:10:48.366Z,40.50
2017-05-06T15:13:17.420Z,39.80
2017-05-06T15:15:45.743Z,39.90
2017-05-06T15:18:14.106Z,39.90
2017-05-06T15:20:42.421Z,40.10
2017-05-06T15:23:11.114Z,40.00
2017-05-06T15:25:39.429Z,40.10
2017-05-06T15:28:07.893Z,39.90
2017-05-06T15:30:36.206Z,40.40
2017-05-06T15:33:04.523Z,40.30
2017-05-06T15:35:32.833Z,40.60
2017-05-06T15:38:01.145Z,40.80
2017-05-06T15:40:29.456Z,40.50
2017-05-06T15:42:57.769Z,40.30
2017-05-06T15:45:26.082Z,40.40
2017-05-06T15:47:54.396Z,40.70
2017-05-06T15:50:22.965Z,40.90
2017-05-06T15:52:52.017Z,41.40
2017-05-06T15:55:20.331Z,41.30
2017-05-06T15:57:48.649Z,41.40
2017-05-06T16:00:16.973Z,41.60
2017-05-06T16:02:45.601Z,41.60
2017-05-06T16:05:13.921Z,41.50
2017-05-06T16:07:42.580Z,41.50
2017-05-06T16:10:10.894Z,41.50
2017-05-06T16:12:39.948Z,41.50
2017-05-06T16:15:08.609Z,41.50
2017-05-06T16:17:37.672Z,41.50
2017-05-06T16:20:06.001Z,41.40
2017-05-06T16:22:34.313Z,41.40
2017-05-06T16:25:02.626Z,41.50
2017-05-06T16:27:31.703Z,41.50
2017-05-06T16:30:00.038Z,41.40
2017-05-06T16:32:29.089Z,41.40
2017-05-06T16:34:57.401Z,41.50
2017-05-06T16:37:26.430Z,41.50
2017-05-06T16:39:54.746Z,41.60
2017-05-06T16:42:23.074Z,41.80
2017-05-06T16:44:51.390Z,41.80
2017-05-06T16:47:19.709Z,41.50
2017-05-06T16:49:48.615Z,41.00
2017-05-06T16:52:16.978Z,40.90
2017-05-06T16:54:45.620Z,40.90
2017-05-06T16:57:13.933Z,40.90
2017-05-06T16:59:42.247Z,41.20
2017-05-06T17:02:10.563Z,41.40
2017-05-06T17:04:38.869Z,41.40
2017-05-06T17:07:08.005Z,41.40
2017-05-06T17:09:36.322Z,41.50
2017-05-06T17:12:04.634Z,41.60
2017-05-06T17:14:32.950Z,41.30
2017-05-06T17:17:01.549Z,41.10
2017-05-06T17:19:29.863Z,40.90
2017-05-06T17:21:58.174Z,41.20
2017-05-06T17:24:27.225Z,41.40
2017-05-06T17:26:55.550Z,41.60
2017-05-06T17:29:23.869Z,41.80
2017-05-06T17:31:52.186Z,42.20
2017-05-06T17:34:21.472Z,43.20
2017-05-06T17:36:49.791Z,42.80
2017-05-06T17:39:18.104Z,43.00
2017-05-06T17:41:47.157Z,43.30
2017-05-06T17:44:15.522Z,43.40
2017-05-06T17:46:44.572Z,43.60
2017-05-06T17:49:20.877Z,43.70
2017-05-06T17:51:50.749Z,43.70
2017-05-06T17:57:13.194Z,43.90
2017-05-06T17:59:44.847Z,44.00
2017-05-06T18:02:15.724Z,44.20
2017-05-06T18:04:44.038Z,44.60
2017-05-06T18:10:03.761Z,45.10
2017-05-06T18:12:40.465Z,45.50
2017-05-06T18:15:12.109Z,45.80
2017-05-06T18:18:09.327Z,46.70
2017-05-06T18:20:55.290Z,46.70
2017-05-06T18:23:27.271Z,46.40
2017-05-06T18:31:26.005Z,46.80
2017-05-06T18:33:54.321Z,47.00
2017-05-06T18:36:22.982Z,47.10
2017-05-06T18:38:52.050Z,47.10
2017-05-06T18:41:20.362Z,47.10
2017-05-06T18:43:48.670Z,47.20
2017-05-06T18:46:16.981Z,47.30
2017-05-06T18:48:46.034Z,47.40
2017-05-06T18:51:14.419Z,47.60
2017-05-06T18:53:42.729Z,48.20
2017-05-06T18:56:11.472Z,47.90
2017-05-06T18:58:39.776Z,48.10
2017-05-06T19:01:08.081Z,48.20
2017-05-06T19:03:36.393Z,48.30
2017-05-06T19:06:04.701Z,48.40
2017-05-06T19:08:33.741Z,48.40
2017-05-06T19:11:02.045Z,48.50
2017-05-06T19:13:30.510Z,48.60
2017-05-06T19:15:59.561Z,48.70
2017-05-06T19:18:27.873Z,48.80
2017-05-06T19:20:56.183Z,48.80
2017-05-06T19:23:24.485Z,48.90
2017-05-06T19:25:52.794Z,49.00
2017-05-06T19:28:21.097Z,49.00
2017-05-06T19:30:49.405Z,49.10
2017-05-06T19:33:17.709Z,49.20
2017-05-06T19:35:46.013Z,49.30
2017-05-06T19:38:15.058Z,49.40
2017-05-06T19:40:43.802Z,49.40
2017-05-06T19:43:12.110Z,49.40
2017-05-06T19:45:40.421Z,49.50
2017-05-06T19:48:08.733Z,49.50
2017-05-06T19:50:37.782Z,49.70
2017-05-06T19:53:06.088Z,49.80
2017-05-06T19:55:34.397Z,49.70
2017-05-06T19:58:06.749Z,49.80
2017-05-06T20:00:35.061Z,49.90
2017-05-06T20:03:03.371Z,50.00
2017-05-06T20:05:31.678Z,50.00
2017-05-06T20:07:59.990Z,50.10
2017-05-06T20:10:28.297Z,50.10
2017-05-06T20:12:57.048Z,50.20
2017-05-06T20:15:25.897Z,50.00
2017-05-06T20:17:54.205Z,50.30
2017-05-06T20:20:22.512Z,50.40
2017-05-06T20:22:50.813Z,50.50
2017-05-06T20:25:19.114Z,50.50
2017-05-06T20:27:47.873Z,50.60
2017-05-06T20:30:16.190Z,50.80
2017-05-06T20:32:44.506Z,50.90
2017-05-06T20:35:12.805Z,51.00
2017-05-06T20:37:41.108Z,51.00
2017-05-06T20:40:09.525Z,51.10
2017-05-06T20:42:37.834Z,51.20
2017-05-06T20:45:06.888Z,51.20
2017-05-06T20:47:35.190Z,51.30
2017-05-06T20:50:03.919Z,51.40
2017-05-06T20:52:32.222Z,51.50
2017-05-06T20:55:00.525Z,51.60
2017-05-06T20:57:28.830Z,51.70
2017-05-06T20:59:57.138Z,51.70
2017-05-06T21:02:25.445Z,51.90
2017-05-06T21:04:54.498Z,52.10
2017-05-06T21:07:22.807Z,52.20
2017-05-06T21:09:51.111Z,52.40
2017-05-06T21:12:19.461Z,52.50
2017-05-06T21:14:48.647Z,52.60
2017-05-06T21:17:17.060Z,52.70
2017-05-06T21:19:45.373Z,52.90
2017-05-06T21:22:14.421Z,53.20
2017-05-06T21:24:42.730Z,53.30
2017-05-06T21:27:11.040Z,53.60
2017-05-06T21:29:39.349Z,53.80
2017-05-06T21:32:11.541Z,53.90
2017-05-06T21:34:39.849Z,54.10
2017-05-06T21:37:08.161Z,54.30
2017-05-06T21:39:37.549Z,54.40
2017-05-06T21:42:05.857Z,54.60
2017-05-06T21:44:34.174Z,54.60
2017-05-06T21:47:02.483Z,54.70
2017-05-06T21:49:31.962Z,54.80
2017-05-06T21:52:00.273Z,54.90
2017-05-06T21:54:28.578Z,55.00
2017-05-06T21:56:57.033Z,55.10
2017-05-06T21:59:25.353Z,55.30
2017-05-06T22:01:55.422Z,55.30
2017-05-06T22:04:23.734Z,55.50
2017-05-06T22:06:52.786Z,55.60
2017-05-06T22:09:21.297Z,55.70
2017-05-06T22:11:49.619Z,55.90
2017-05-06T22:14:17.930Z,55.80
2017-05-06T22:16:46.241Z,55.90
2017-05-06T22:19:14.593Z,56.10
2017-05-06T22:21:42.901Z,56.30
2017-05-06T22:24:12.558Z,56.40
2017-05-06T22:26:40.866Z,56.60
2017-05-06T22:29:09.174Z,56.70
2017-05-06T22:31:38.569Z,56.70
2017-05-06T22:34:06.889Z,56.90
2017-05-06T22:36:35.939Z,56.90
2017-05-06T22:39:04.282Z,57.00
2017-05-06T22:41:32.590Z,57.10
2017-05-06T22:44:01.173Z,57.20
2017-05-06T22:46:29.485Z,57.10
2017-05-06T22:48:57.804Z,57.30
2017-05-06T22:51:26.855Z,57.40
2017-05-06T22:53:55.162Z,57.50
2017-05-06T22:56:24.733Z,57.50
2017-05-06T22:58:53.049Z,57.60
2017-05-06T23:01:22.461Z,57.70
2017-05-06T23:03:51.513Z,57.70
2017-05-06T23:06:19.825Z,57.90
2017-05-06T23:08:48.141Z,58.00
2017-05-06T23:11:16.924Z,58.10
2017-05-06T23:13:45.230Z,58.20
2017-05-06T23:16:13.537Z,58.20
2017-05-06T23:18:41.846Z,58.40
2017-05-06T23:21:10.158Z,58.50
2017-05-06T23:23:38.785Z,58.60
2017-05-06T23:26:07.853Z,58.80
2017-05-06T23:28:36.166Z,59.00
2017-05-06T23:31:04.474Z,59.20
2017-05-06T23:33:32.787Z,59.30
2017-05-06T23:36:01.143Z,59.50
2017-05-06T23:38:29.457Z,59.60
2017-05-06T23:40:57.808Z,59.70
2017-05-06T23:43:26.121Z,59.70
2017-05-06T23:45:54.470Z,59.90
2017-05-06T23:48:22.777Z,60.00
2017-05-06T23:50:51.253Z,59.90
2017-05-06T23:53:19.565Z,60.00
2017-05-06T23:55:47.878Z,60.00
2017-05-06T23:58:16.498Z,60.20
